Posidonia — EACL — position and weather

sailwx.info

Track history (hours):
 
Tides and Currents Weather Stations Pressure Air Temp Water Temp Dewpoint Dewpoint Depression Visibility Wind Speed Wind Dir Waves Ship Positions

Posidonia

Last reported at 2017-Oct-18 22:30 UTC. Time now 2017-Oct-18 22:41 UTC.
Position N 38°55' E 001°26'.

Length 71 m; draft 3.6 m.

Type: Ship. MMSI: 225444000.

Date/timePositionNaut miles runAvg speedWind from/ knotsBaromVisibWave heightAir tempDewpointWater temp
2017-Oct-18 22:30N 38°55' E 001°26'0 0.0
2017-Oct-18 22:00N 38°55' E 001°26'4 6.4
2017-Oct-18 21:20N 38°51' E 001°26'5 5.6
2017-Oct-18 20:22N 38°45' E 001°25'513.5
2017-Oct-18 19:58N 38°51' E 001°26'4 8.8
2017-Oct-18 19:29N 38°55' E 001°26'0 0.0
2017-Oct-18 18:58N 38°55' E 001°26'0 0.0
2017-Oct-18 18:29N 38°55' E 001°26'0 0.0
2017-Oct-18 17:59N 38°55' E 001°26'0 0.0
2017-Oct-18 17:29N 38°55' E 001°26'510.6
2017-Oct-18 17:00N 38°50' E 001°26'5 5.4
2017-Oct-18 16:01N 38°44' E 001°25'0 7.6
2017-Oct-18 15:58N 38°45' E 001°25'612.5
2017-Oct-18 15:28N 38°51' E 001°26'4 8.0
2017-Oct-18 15:01N 38°55' E 001°26'0 0.0
2017-Oct-18 13:59N 38°55' E 001°26'0 0.0
2017-Oct-18 13:30N 38°55' E 001°26'0 0.0
2017-Oct-18 12:59N 38°55' E 001°26'0 0.0
2017-Oct-18 12:30N 38°55' E 001°26'0 0.0
2017-Oct-18 11:59N 38°55' E 001°26'611.5
2017-Oct-18 11:30N 38°49' E 001°26'5 4.3
2017-Oct-18 10:28N 38°45' E 001°25'713.1
2017-Oct-18 09:57N 38°51' E 001°27'3 7.5
2017-Oct-18 09:30N 38°55' E 001°26'0 0.0
2017-Oct-18 09:00N 38°55' E 001°26'0 0.0
2017-Oct-18 08:30N 38°55' E 001°26'0 0.0
2017-Oct-18 07:57N 38°55' E 001°26'0 0.1
2017-Oct-18 07:29N 38°55' E 001°26'612.0
2017-Oct-18 07:00N 38°49' E 001°25'4 4.4
2017-Oct-18 06:02N 38°45' E 001°25'214.6
2017-Oct-18 05:56N 38°46' E 001°25'614.2
2017-Oct-18 05:29N 38°53' E 001°26'2 4.2
2017-Oct-18 04:57N 38°55' E 001°26'0 0.0
2017-Oct-18 04:29N 38°55' E 001°26'0 0.0
2017-Oct-18 04:00N 38°55' E 001°26'0 0.0
2017-Oct-18 03:29N 38°55' E 001°26'0 0.0
2017-Oct-18 02:56N 38°55' E 001°26'0 0.0
2017-Oct-18 02:30N 38°55' E 001°26'0 0.0
2017-Oct-18 02:00N 38°55' E 001°26'0 0.0
2017-Oct-18 01:28N 38°55' E 001°26'0 0.0
2017-Oct-18 00:58N 38°55' E 001°26'0 0.0
2017-Oct-18 00:26N 38°55' E 001°26'0 0.0
2017-Oct-17 23:58N 38°55' E 001°26'0 0.0
2017-Oct-17 23:30N 38°55' E 001°26'0 0.0
2017-Oct-17 23:00N 38°55' E 001°26'0 0.0
2017-Oct-17 22:29N 38°55' E 001°26'0 0.0
2017-Oct-17 22:00N 38°55' E 001°26'1 1.7
2017-Oct-17 21:30N 38°54' E 001°27'1014.5
2017-Oct-17 20:51N 38°45' E 001°25'0 0.5
2017-Oct-17 20:22N 38°44' E 001°25'914.4
2017-Oct-17 19:44N 38°53' E 001°27'1 4.2
2017-Oct-17 19:24N 38°55' E 001°26'0 0.0
2017-Oct-17 18:59N 38°55' E 001°26'0 0.0
2017-Oct-17 18:29N 38°55' E 001°26'0 0.0
2017-Oct-17 17:58N 38°55' E 001°26'0 0.0
2017-Oct-17 17:29N 38°55' E 001°26'610.3
2017-Oct-17 16:54N 38°49' E 001°25'3 3.0
2017-Oct-17 15:51N 38°46' E 001°25'513.0
2017-Oct-17 15:28N 38°50' E 001°26'4 6.8
2017-Oct-17 14:49N 38°55' E 001°26'0 0.0
2017-Oct-17 14:24N 38°55' E 001°26'0 0.0
2017-Oct-17 14:00N 38°55' E 001°26'0 0.0
2017-Oct-17 13:28N 38°55' E 001°26'0 0.0
2017-Oct-17 13:00N 38°55' E 001°26'0 0.0
2017-Oct-17 12:30N 38°55' E 001°26'0 0.0
2017-Oct-17 12:00N 38°55' E 001°26'611.2
2017-Oct-17 11:30N 38°49' E 001°25'4 3.7
2017-Oct-17 10:26N 38°45' E 001°25'613.0
2017-Oct-17 09:58N 38°51' E 001°27'4 7.5
2017-Oct-17 09:28N 38°55' E 001°26'0 0.0
2017-Oct-17 09:00N 38°55' E 001°26'0 0.0
2017-Oct-17 08:29N 38°55' E 001°26'0 0.0
2017-Oct-17 07:59N 38°55' E 001°26'0 0.0
2017-Oct-17 07:28N 38°55' E 001°26'711.6
2017-Oct-17 06:50N 38°47' E 001°25'3 3.9
2017-Oct-17 06:00N 38°44' E 001°25'612.3
2017-Oct-17 05:29N 38°51' E 001°27'4 8.3
2017-Oct-17 04:59N 38°55' E 001°26'0 0.0
2017-Oct-17 04:29N 38°55' E 001°26'0 0.0
2017-Oct-17 03:58N 38°55' E 001°26'0 0.0
2017-Oct-17 03:16N 38°55' E 001°26'0 0.0
2017-Oct-17 02:59N 38°55' E 001°26'0 0.0
2017-Oct-17 02:30N 38°55' E 001°26'0 0.0
2017-Oct-17 01:58N 38°55' E 001°26'0 0.0
2017-Oct-17 01:29N 38°55' E 001°26'0 0.0
2017-Oct-17 00:58N 38°55' E 001°26'0 0.0
2017-Oct-17 00:30N 38°55' E 001°26'0 0.0
2017-Oct-17 00:00N 38°55' E 001°26'0 0.0
2017-Oct-16 23:29N 38°55' E 001°26'0 0.0
2017-Oct-16 23:00N 38°55' E 001°26'0 0.0
2017-Oct-16 22:30N 38°55' E 001°26'0 0.0
2017-Oct-16 21:59N 38°55' E 001°26'1 1.9
2017-Oct-16 21:29N 38°54' E 001°27'9 7.5
2017-Oct-16 20:19N 38°45' E 001°25'814.4
2017-Oct-16 19:46N 38°53' E 001°27'2 7.0
2017-Oct-16 19:29N 38°55' E 001°26'0 0.0
2017-Oct-16 18:59N 38°55' E 001°26'0 0.0
2017-Oct-16 18:29N 38°55' E 001°26'0 0.0
2017-Oct-16 17:59N 38°55' E 001°26'0 0.1
2017-Oct-16 17:29N 38°55' E 001°26'511.2
2017-Oct-16 17:00N 38°49' E 001°26'5 1.2
2017-Oct-16 12:26N 38°55' E 001°26'0 0.1
2017-Oct-16 11:55N 38°55' E 001°26'511.8
2017-Oct-16 11:29N 38°50' E 001°26'5 4.8
2017-Oct-16 10:26N 38°45' E 001°25'613.1
2017-Oct-16 09:57N 38°51' E 001°27'4 6.4
2017-Oct-16 09:21N 38°55' E 001°26'0 0.0
2017-Oct-16 08:59N 38°55' E 001°26'0 0.0
2017-Oct-16 08:29N 38°55' E 001°26'0 0.0
2017-Oct-16 07:55N 38°55' E 001°26'0 0.0
2017-Oct-16 07:30N 38°55' E 001°26'510.8
2017-Oct-16 06:59N 38°49' E 001°26'4 4.0
2017-Oct-16 06:00N 38°45' E 001°25'813.4
2017-Oct-16 05:25N 38°53' E 001°27'2 3.4
2017-Oct-16 04:54N 38°55' E 001°26'0 0.0
2017-Oct-16 04:27N 38°55' E 001°26'0 0.0
2017-Oct-16 03:59N 38°55' E 001°26'0 0.0
2017-Oct-16 03:29N 38°55' E 001°26'0 0.0
2017-Oct-16 02:57N 38°55' E 001°26'0 0.0
2017-Oct-16 02:27N 38°55' E 001°26'0 0.0
2017-Oct-16 01:59N 38°55' E 001°26'0 0.0
2017-Oct-16 01:29N 38°55' E 001°26'0 0.0
2017-Oct-16 00:59N 38°55' E 001°26'0 0.0
2017-Oct-16 00:29N 38°55' E 001°26'0 0.0
2017-Oct-16 00:00N 38°55' E 001°26'0 0.0
2017-Oct-15 23:29N 38°55' E 001°26'0 0.0
2017-Oct-15 22:59N 38°55' E 001°26'0 0.0
2017-Oct-15 22:30N 38°55' E 001°26'0 0.0
2017-Oct-15 21:56N 38°55' E 001°26'1 2.1
2017-Oct-15 21:29N 38°54' E 001°27'9 7.4
2017-Oct-15 20:19N 38°45' E 001°25'714.4
2017-Oct-15 19:51N 38°52' E 001°26'3 7.0
2017-Oct-15 19:27N 38°55' E 001°26'0 0.0
2017-Oct-15 18:59N 38°55' E 001°26'0 0.0
2017-Oct-15 18:30N 38°55' E 001°26'0 0.0
2017-Oct-15 17:59N 38°55' E 001°26'0 0.2
2017-Oct-15 17:28N 38°55' E 001°26'712.4
2017-Oct-15 16:56N 38°48' E 001°25'4 4.1
2017-Oct-15 16:01N 38°44' E 001°25'0 2.5
2017-Oct-15 15:59N 38°44' E 001°25'712.7
2017-Oct-15 15:28N 38°51' E 001°26'4 8.0
2017-Oct-15 14:59N 38°55' E 001°26'0 0.0
2017-Oct-15 14:00N 38°55' E 001°26'0 0.0
2017-Oct-15 13:29N 38°55' E 001°26'0 0.0
2017-Oct-15 13:00N 38°55' E 001°26'0 0.0
2017-Oct-15 12:29N 38°55' E 001°26'0 0.0
2017-Oct-15 11:59N 38°55' E 001°26'4 9.1
2017-Oct-15 11:30N 38°50' E 001°26'5 4.9
2017-Oct-15 10:27N 38°45' E 001°25'613.2
2017-Oct-15 10:00N 38°51' E 001°27'4 7.0
2017-Oct-15 09:30N 38°55' E 001°26'0 0.0
2017-Oct-15 08:58N 38°55' E 001°26'0 0.0
2017-Oct-15 08:30N 38°55' E 001°26'5 9.3
2017-Oct-15 08:00N 38°50' E 001°26'6 5.0
2017-Oct-15 06:52N 38°45' E 001°25'713.9
2017-Oct-15 06:24N 38°51' E 001°26'4 9.1
2017-Oct-15 06:00N 38°55' E 001°26'0 0.0
2017-Oct-15 05:29N 38°55' E 001°26'0 0.0
2017-Oct-15 04:59N 38°55' E 001°26'0 0.0
2017-Oct-15 04:30N 38°55' E 001°26'0 0.0
2017-Oct-15 03:56N 38°55' E 001°26'0 0.0
2017-Oct-15 03:29N 38°55' E 001°26'0 0.0
2017-Oct-15 02:59N 38°55' E 001°26'0 0.0
2017-Oct-15 02:28N 38°55' E 001°26'0 0.0
2017-Oct-15 01:58N 38°55' E 001°26'0 0.0
2017-Oct-15 01:27N 38°55' E 001°26'0 0.0
2017-Oct-15 00:57N 38°55' E 001°26'0 0.0
2017-Oct-15 00:29N 38°55' E 001°26'0 0.0
2017-Oct-14 23:59N 38°55' E 001°26'0 0.0
2017-Oct-14 23:28N 38°55' E 001°26'0 0.0
2017-Oct-14 22:58N 38°55' E 001°26'0 0.0
2017-Oct-14 22:29N 38°55' E 001°26'0 0.0
2017-Oct-14 21:49N 38°55' E 001°26'2 5.4
2017-Oct-14 21:30N 38°53' E 001°27'8 6.6
2017-Oct-14 20:18N 38°45' E 001°25'814.5
2017-Oct-14 19:45N 38°53' E 001°27'2 5.6
2017-Oct-14 19:28N 38°55' E 001°26'0 0.0
2017-Oct-14 18:58N 38°55' E 001°26'0 0.0
2017-Oct-14 18:30N 38°55' E 001°26'0 0.0
2017-Oct-14 18:00N 38°55' E 001°26'0 0.0
2017-Oct-14 17:30N 38°55' E 001°26'611.1
2017-Oct-14 17:00N 38°49' E 001°26'5 4.5
2017-Oct-14 15:58N 38°45' E 001°25'612.4
2017-Oct-14 15:30N 38°50' E 001°26'5 8.9
2017-Oct-14 15:00N 38°55' E 001°26'0 0.0
2017-Oct-14 14:30N 38°55' E 001°26'0 0.0
2017-Oct-14 14:00N 38°55' E 001°26'0 0.0
2017-Oct-14 13:27N 38°55' E 001°26'0 0.0
2017-Oct-14 12:59N 38°55' E 001°26'0 0.0
2017-Oct-14 12:29N 38°55' E 001°26'0 0.0
2017-Oct-14 12:00N 38°55' E 001°26'511.1
2017-Oct-14 11:30N 38°49' E 001°26'5 5.1
2017-Oct-14 10:32N 38°44' E 001°25'0 4.2
2017-Oct-14 10:28N 38°45' E 001°25'612.9
2017-Oct-14 10:00N 38°51' E 001°26'4 8.0
2017-Oct-14 09:30N 38°55' E 001°26'0 0.0
2017-Oct-14 08:59N 38°55' E 001°26'0 0.0
2017-Oct-14 08:27N 38°55' E 001°26'0 0.0
2017-Oct-14 08:00N 38°55' E 001°26'0 0.0
2017-Oct-14 07:29N 38°55' E 001°26'6 9.7
2017-Oct-14 06:54N 38°49' E 001°26'4 4.3
2017-Oct-14 05:56N 38°45' E 001°25'713.8
2017-Oct-14 05:25N 38°52' E 001°26'3 6.6
2017-Oct-14 04:59N 38°55' E 001°26'0 0.0
2017-Oct-14 04:30N 38°55' E 001°26'0 0.0
2017-Oct-14 04:00N 38°55' E 001°26'0 0.0
2017-Oct-14 03:29N 38°55' E 001°26'0 0.0
2017-Oct-14 03:00N 38°55' E 001°26'0 0.0
2017-Oct-14 02:28N 38°55' E 001°26'0 0.0
2017-Oct-14 01:57N 38°55' E 001°26'0 0.0
2017-Oct-14 01:30N 38°55' E 001°26'0 0.0
2017-Oct-14 00:57N 38°55' E 001°26'0 0.0
2017-Oct-14 00:29N 38°55' E 001°26'0 0.0
2017-Oct-14 00:00N 38°55' E 001°26'0 0.0
2017-Oct-13 23:29N 38°55' E 001°26'0 0.0
2017-Oct-13 23:00N 38°55' E 001°26'0 0.0
2017-Oct-13 22:30N 38°55' E 001°26'0 0.0
2017-Oct-13 22:00N 38°55' E 001°26'2 3.9
2017-Oct-13 21:30N 38°53' E 001°27'8 7.8
2017-Oct-13 20:25N 38°44' E 001°25'714.4
2017-Oct-13 19:55N 38°52' E 001°26'3 7.0
2017-Oct-13 19:29N 38°55' E 001°26'0 0.0
2017-Oct-13 18:59N 38°55' E 001°26'0 0.0
2017-Oct-13 18:28N 38°55' E 001°26'0 0.0
2017-Oct-13 18:00N 38°55' E 001°26'0 0.2
2017-Oct-13 17:30N 38°55' E 001°26'612.3
2017-Oct-13 16:58N 38°48' E 001°25'3 2.7
2017-Oct-13 15:53N 38°45' E 001°25'613.5
2017-Oct-13 15:24N 38°52' E 001°26'3 7.1
2017-Oct-13 14:59N 38°55' E 001°26'0 0.0
2017-Oct-13 14:29N 38°55' E 001°26'0 0.0
2017-Oct-13 13:59N 38°55' E 001°26'0 0.0
2017-Oct-13 13:28N 38°55' E 001°26'0 0.0
2017-Oct-13 13:00N 38°55' E 001°26'0 0.0
2017-Oct-13 12:30N 38°55' E 001°26'0 0.0
2017-Oct-13 11:59N 38°55' E 001°26'611.4
2017-Oct-13 11:29N 38°49' E 001°26'4 4.5
2017-Oct-13 10:30N 38°45' E 001°25'713.6
2017-Oct-13 10:00N 38°51' E 001°26'3 6.7
2017-Oct-13 09:30N 38°55' E 001°26'0 0.0
2017-Oct-13 08:42N 38°55' E 001°26'0 0.0
2017-Oct-13 08:29N 38°55' E 001°26'0 0.0
2017-Oct-13 07:57N 38°55' E 001°26'0 0.0
2017-Oct-13 07:29N 38°55' E 001°26'510.6
2017-Oct-13 07:00N 38°50' E 001°26'5 5.2
2017-Oct-13 06:00N 38°44' E 001°25'713.2
2017-Oct-13 05:28N 38°51' E 001°26'3 7.2
2017-Oct-13 05:00N 38°55' E 001°26'0 0.0
2017-Oct-13 04:29N 38°55' E 001°26'0 0.0
2017-Oct-13 04:00N 38°55' E 001°26'0 0.0
2017-Oct-13 03:30N 38°55' E 001°26'0 0.0
2017-Oct-13 02:59N 38°55' E 001°26'0 0.0
2017-Oct-13 02:29N 38°55' E 001°26'0 0.0
2017-Oct-13 01:59N 38°55' E 001°26'0 0.0
2017-Oct-13 01:28N 38°55' E 001°26'0 0.0
2017-Oct-13 00:58N 38°55' E 001°26'0 0.0
2017-Oct-13 00:29N 38°55' E 001°26'0 0.0
2017-Oct-13 00:00N 38°55' E 001°26'0 0.0
2017-Oct-12 23:30N 38°55' E 001°26'0 0.0
2017-Oct-12 22:59N 38°55' E 001°26'0 0.0
2017-Oct-12 22:29N 38°55' E 001°26'0 0.0
2017-Oct-12 21:59N 38°55' E 001°26'4 7.5
2017-Oct-12 21:23N 38°50' E 001°26'6 5.7
2017-Oct-12 20:22N 38°45' E 001°25'613.7
2017-Oct-12 19:57N 38°50' E 001°26'4 9.6
2017-Oct-12 19:29N 38°55' E 001°26'0 0.0
2017-Oct-12 19:00N 38°55' E 001°26'0 0.0
2017-Oct-12 18:28N 38°55' E 001°26'0 0.0
2017-Oct-12 18:00N 38°55' E 001°26'0 0.0
2017-Oct-12 17:30N 38°55' E 001°26'610.7
2017-Oct-12 16:59N 38°49' E 001°25'5 4.8
2017-Oct-12 16:00N 38°44' E 001°25'711.8
2017-Oct-12 15:25N 38°51' E 001°26'3 7.8
2017-Oct-12 14:59N 38°55' E 001°26'0 0.0
2017-Oct-12 14:28N 38°55' E 001°26'0 0.0
2017-Oct-12 13:59N 38°55' E 001°26'0 0.0
2017-Oct-12 13:29N 38°55' E 001°26'0 0.0
2017-Oct-12 13:00N 38°55' E 001°26'0 0.0
2017-Oct-12 12:30N 38°55' E 001°26'0 0.1
2017-Oct-12 11:54N 38°55' E 001°26'512.7
2017-Oct-12 11:30N 38°50' E 001°26'5 5.2
2017-Oct-12 10:30N 38°44' E 001°25'713.4
2017-Oct-12 09:58N 38°52' E 001°26'3 6.6
2017-Oct-12 09:29N 38°55' E 001°26'0 0.0
2017-Oct-12 09:00N 38°55' E 001°26'0 0.0
2017-Oct-12 08:28N 38°55' E 001°26'511.3
2017-Oct-12 07:59N 38°49' E 001°26'5 4.4
2017-Oct-12 06:56N 38°45' E 001°25'714.0
2017-Oct-12 06:25N 38°52' E 001°27'3 6.8
2017-Oct-12 06:00N 38°55' E 001°26'0 0.0
2017-Oct-12 05:30N 38°55' E 001°26'0 0.0
2017-Oct-12 04:58N 38°55' E 001°26'0 0.0
2017-Oct-12 04:29N 38°55' E 001°26'0 0.0
2017-Oct-12 04:00N 38°55' E 001°26'0 0.0
2017-Oct-12 03:29N 38°55' E 001°26'0 0.0
2017-Oct-12 03:00N 38°55' E 001°26'0 0.0
2017-Oct-12 02:29N 38°55' E 001°26'0 0.0
2017-Oct-12 02:00N 38°55' E 001°26'0 0.0
2017-Oct-12 01:30N 38°55' E 001°26'0 0.0
2017-Oct-12 00:59N 38°55' E 001°26'0 0.0
2017-Oct-12 00:29N 38°55' E 001°26'0 0.0
2017-Oct-11 23:59N 38°55' E 001°26'0 0.0
2017-Oct-11 23:28N 38°55' E 001°26'0 0.0
2017-Oct-11 23:01N 38°55' E 001°26'0 0.0
2017-Oct-11 22:28N 38°55' E 001°26'0 0.0
2017-Oct-11 22:00N 38°55' E 001°26'1 2.4
2017-Oct-11 21:30N 38°54' E 001°27'8 6.2
2017-Oct-11 20:16N 38°46' E 001°25'614.2
2017-Oct-11 19:53N 38°52' E 001°26'3 7.8
2017-Oct-11 19:28N 38°55' E 001°26'0 0.0
2017-Oct-11 18:59N 38°55' E 001°26'0 0.0
2017-Oct-11 18:28N 38°55' E 001°26'0 0.0
2017-Oct-11 17:59N 38°55' E 001°26'0 0.0
2017-Oct-11 17:30N 38°55' E 001°26'510.4
2017-Oct-11 16:59N 38°49' E 001°26'5 0.3
2017-Oct-11 00:00N 38°55' E 001°26'0 0.0
2017-Oct-10 23:30N 38°55' E 001°26'0 0.0
2017-Oct-10 22:59N 38°55' E 001°26'0 0.0
2017-Oct-10 21:55N 38°55' E 001°26'1 2.3
2017-Oct-10 21:30N 38°54' E 001°27'8 6.6
2017-Oct-10 20:17N 38°46' E 001°25'714.6
2017-Oct-10 19:48N 38°53' E 001°27'2 6.5
2017-Oct-10 19:29N 38°55' E 001°26'0 0.0
2017-Oct-10 18:59N 38°55' E 001°26'0 0.0
2017-Oct-10 18:29N 38°55' E 001°26'0 0.0
2017-Oct-10 18:00N 38°55' E 001°26'0 0.0
2017-Oct-10 17:30N 38°55' E 001°26'711.0
2017-Oct-10 16:54N 38°48' E 001°25'3 3.7
2017-Oct-10 15:58N 38°45' E 001°25'813.8
2017-Oct-10 15:25N 38°53' E 001°27'2 5.4
2017-Oct-10 15:00N 38°55' E 001°26'0 0.0
2017-Oct-10 13:59N 38°55' E 001°26'0 0.0
2017-Oct-10 13:30N 38°55' E 001°26'0 0.0
2017-Oct-10 13:00N 38°55' E 001°26'0 0.0
2017-Oct-10 12:29N 38°55' E 001°26'0 0.0
2017-Oct-10 11:59N 38°55' E 001°26'510.5
2017-Oct-10 11:30N 38°50' E 001°26'4 3.5
2017-Oct-10 10:21N 38°46' E 001°25'513.9
2017-Oct-10 09:59N 38°51' E 001°26'4 8.5
2017-Oct-10 09:30N 38°55' E 001°26'0 0.0
2017-Oct-10 09:00N 38°55' E 001°26'0 0.0
2017-Oct-10 08:30N 38°55' E 001°26'0 0.0
2017-Oct-10 07:59N 38°55' E 001°26'0 0.0
2017-Oct-10 07:28N 38°55' E 001°26'510.9
2017-Oct-10 06:59N 38°49' E 001°26'4 3.5
2017-Oct-10 05:55N 38°46' E 001°25'614.6
2017-Oct-10 05:29N 38°52' E 001°26'3 5.8
2017-Oct-10 05:00N 38°55' E 001°26'0 0.0
2017-Oct-10 04:30N 38°55' E 001°26'0 0.0
2017-Oct-10 03:59N 38°55' E 001°26'0 0.0
2017-Oct-10 03:29N 38°55' E 001°26'0 0.0
2017-Oct-10 02:58N 38°55' E 001°26'0 0.0
2017-Oct-10 02:28N 38°55' E 001°26'0 0.0
2017-Oct-10 02:00N 38°55' E 001°26'0 0.0
2017-Oct-10 01:29N 38°55' E 001°26'0 0.0
2017-Oct-10 00:59N 38°55' E 001°26'0 0.0
2017-Oct-10 00:29N 38°55' E 001°26'0 0.0
2017-Oct-09 23:59N 38°55' E 001°26'0 0.0
2017-Oct-09 23:30N 38°55' E 001°26'0 0.0
2017-Oct-09 22:59N 38°55' E 001°26'0 0.0
2017-Oct-09 22:29N 38°55' E 001°26'0 0.0
2017-Oct-09 22:00N 38°55' E 001°26'1 2.9
2017-Oct-09 21:29N 38°53' E 001°27'8 6.3
2017-Oct-09 20:17N 38°46' E 001°25'614.4
2017-Oct-09 19:52N 38°52' E 001°26'3 7.8
2017-Oct-09 19:29N 38°55' E 001°26'0 0.0
2017-Oct-09 19:00N 38°55' E 001°26'0 0.0
2017-Oct-09 18:29N 38°55' E 001°26'0 0.0
2017-Oct-09 18:00N 38°55' E 001°26'0 0.1
2017-Oct-09 17:27N 38°55' E 001°26'611.6
2017-Oct-09 16:59N 38°49' E 001°26'3 2.9
2017-Oct-09 15:51N 38°46' E 001°25'514.3
2017-Oct-09 15:28N 38°51' E 001°26'3 7.3
2017-Oct-09 15:00N 38°55' E 001°26'0 0.0
2017-Oct-09 14:30N 38°55' E 001°26'0 0.0
2017-Oct-09 14:00N 38°55' E 001°26'0 0.0
2017-Oct-09 13:31N 38°55' E 001°26'0 0.0
2017-Oct-09 13:00N 38°55' E 001°26'0 0.0
2017-Oct-09 12:30N 38°55' E 001°26'0 0.0
2017-Oct-09 12:00N 38°55' E 001°26'5 9.7
2017-Oct-09 11:26N 38°49' E 001°26'5 5.0
2017-Oct-09 10:28N 38°45' E 001°25'613.5
2017-Oct-09 10:00N 38°51' E 001°26'4 7.7
2017-Oct-09 09:30N 38°55' E 001°26'0 0.0
2017-Oct-09 08:59N 38°55' E 001°26'0 0.0
2017-Oct-09 08:28N 38°55' E 001°26'0 0.0
2017-Oct-09 07:59N 38°55' E 001°26'0 0.0
2017-Oct-09 07:30N 38°55' E 001°26'611.2
2017-Oct-09 07:00N 38°49' E 001°26'5 4.9
2017-Oct-09 06:01N 38°44' E 001°25'112.3
2017-Oct-09 05:55N 38°46' E 001°25'714.2
2017-Oct-09 05:25N 38°53' E 001°26'2 5.5
2017-Oct-09 05:00N 38°55' E 001°26'0 0.0
2017-Oct-09 04:28N 38°55' E 001°26'0 0.0
2017-Oct-09 03:58N 38°55' E 001°26'0 0.0
2017-Oct-09 03:30N 38°55' E 001°26'0 0.0
2017-Oct-09 03:00N 38°55' E 001°26'0 0.0
2017-Oct-09 02:28N 38°55' E 001°26'0 0.0
2017-Oct-09 02:00N 38°55' E 001°26'0 0.0
2017-Oct-09 01:30N 38°55' E 001°26'0 0.0
2017-Oct-09 00:59N 38°55' E 001°26'0 0.0
2017-Oct-09 00:29N 38°55' E 001°26'0 0.0
2017-Oct-08 23:59N 38°55' E 001°26'0 0.0
2017-Oct-08 23:30N 38°55' E 001°26'0 0.0
2017-Oct-08 22:59N 38°55' E 001°26'0 0.0
2017-Oct-08 22:30N 38°55' E 001°26'  
Track history (hours):
 
Tides and Currents Weather Stations Pressure Air Temp Water Temp Dewpoint Dewpoint Depression Visibility Wind Speed Wind Dir Waves Ship Positions

Posidonia

Last reported at 2017-Oct-18 22:30 UTC. Time now 2017-Oct-18 22:41 UTC.
Position N 38°55' E 001°26'.

Length 71 m; draft 3.6 m.

Type: Ship. MMSI: 225444000.

Date/timePositionNaut miles runAvg speedWind from/ knotsBaromVisibWave heightAir tempDewpointWater temp
2017-Oct-18 22:30N 38°55' E 001°26'0 0.0
2017-Oct-18 22:00N 38°55' E 001°26'4 6.4
2017-Oct-18 21:20N 38°51' E 001°26'5 5.6
2017-Oct-18 20:22N 38°45' E 001°25'513.5
2017-Oct-18 19:58N 38°51' E 001°26'4 8.8
2017-Oct-18 19:29N 38°55' E 001°26'0 0.0
2017-Oct-18 18:58N 38°55' E 001°26'0 0.0
2017-Oct-18 18:29N 38°55' E 001°26'0 0.0
2017-Oct-18 17:59N 38°55' E 001°26'0 0.0
2017-Oct-18 17:29N 38°55' E 001°26'510.6
2017-Oct-18 17:00N 38°50' E 001°26'5 5.4
2017-Oct-18 16:01N 38°44' E 001°25'0 7.6
2017-Oct-18 15:58N 38°45' E 001°25'612.5
2017-Oct-18 15:28N 38°51' E 001°26'4 8.0
2017-Oct-18 15:01N 38°55' E 001°26'0 0.0
2017-Oct-18 13:59N 38°55' E 001°26'0 0.0
2017-Oct-18 13:30N 38°55' E 001°26'0 0.0
2017-Oct-18 12:59N 38°55' E 001°26'0 0.0
2017-Oct-18 12:30N 38°55' E 001°26'0 0.0
2017-Oct-18 11:59N 38°55' E 001°26'611.5
2017-Oct-18 11:30N 38°49' E 001°26'5 4.3
2017-Oct-18 10:28N 38°45' E 001°25'713.1
2017-Oct-18 09:57N 38°51' E 001°27'3 7.5
2017-Oct-18 09:30N 38°55' E 001°26'0 0.0
2017-Oct-18 09:00N 38°55' E 001°26'0 0.0
2017-Oct-18 08:30N 38°55' E 001°26'0 0.0
2017-Oct-18 07:57N 38°55' E 001°26'0 0.1
2017-Oct-18 07:29N 38°55' E 001°26'612.0
2017-Oct-18 07:00N 38°49' E 001°25'4 4.4
2017-Oct-18 06:02N 38°45' E 001°25'214.6
2017-Oct-18 05:56N 38°46' E 001°25'614.2
2017-Oct-18 05:29N 38°53' E 001°26'2 4.2
2017-Oct-18 04:57N 38°55' E 001°26'0 0.0
2017-Oct-18 04:29N 38°55' E 001°26'0 0.0
2017-Oct-18 04:00N 38°55' E 001°26'0 0.0
2017-Oct-18 03:29N 38°55' E 001°26'0 0.0
2017-Oct-18 02:56N 38°55' E 001°26'0 0.0
2017-Oct-18 02:30N 38°55' E 001°26'0 0.0
2017-Oct-18 02:00N 38°55' E 001°26'0 0.0
2017-Oct-18 01:28N 38°55' E 001°26'0 0.0
2017-Oct-18 00:58N 38°55' E 001°26'0 0.0
2017-Oct-18 00:26N 38°55' E 001°26'0 0.0
2017-Oct-17 23:58N 38°55' E 001°26'0 0.0
2017-Oct-17 23:30N 38°55' E 001°26'0 0.0
2017-Oct-17 23:00N 38°55' E 001°26'0 0.0
2017-Oct-17 22:29N 38°55' E 001°26'0 0.0
2017-Oct-17 22:00N 38°55' E 001°26'1 1.7
2017-Oct-17 21:30N 38°54' E 001°27'1014.5
2017-Oct-17 20:51N 38°45' E 001°25'0 0.5
2017-Oct-17 20:22N 38°44' E 001°25'914.4
2017-Oct-17 19:44N 38°53' E 001°27'1 4.2
2017-Oct-17 19:24N 38°55' E 001°26'0 0.0
2017-Oct-17 18:59N 38°55' E 001°26'0 0.0
2017-Oct-17 18:29N 38°55' E 001°26'0 0.0
2017-Oct-17 17:58N 38°55' E 001°26'0 0.0
2017-Oct-17 17:29N 38°55' E 001°26'610.3
2017-Oct-17 16:54N 38°49' E 001°25'3 3.0
2017-Oct-17 15:51N 38°46' E 001°25'513.0
2017-Oct-17 15:28N 38°50' E 001°26'4 6.8
2017-Oct-17 14:49N 38°55' E 001°26'0 0.0
2017-Oct-17 14:24N 38°55' E 001°26'0 0.0
2017-Oct-17 14:00N 38°55' E 001°26'0 0.0
2017-Oct-17 13:28N 38°55' E 001°26'0 0.0
2017-Oct-17 13:00N 38°55' E 001°26'0 0.0
2017-Oct-17 12:30N 38°55' E 001°26'0 0.0
2017-Oct-17 12:00N 38°55' E 001°26'611.2
2017-Oct-17 11:30N 38°49' E 001°25'4 3.7
2017-Oct-17 10:26N 38°45' E 001°25'613.0
2017-Oct-17 09:58N 38°51' E 001°27'4 7.5
2017-Oct-17 09:28N 38°55' E 001°26'0 0.0
2017-Oct-17 09:00N 38°55' E 001°26'0 0.0
2017-Oct-17 08:29N 38°55' E 001°26'0 0.0
2017-Oct-17 07:59N 38°55' E 001°26'0 0.0
2017-Oct-17 07:28N 38°55' E 001°26'711.6
2017-Oct-17 06:50N 38°47' E 001°25'3 3.9
2017-Oct-17 06:00N 38°44' E 001°25'612.3
2017-Oct-17 05:29N 38°51' E 001°27'4 8.3
2017-Oct-17 04:59N 38°55' E 001°26'0 0.0
2017-Oct-17 04:29N 38°55' E 001°26'0 0.0
2017-Oct-17 03:58N 38°55' E 001°26'0 0.0
2017-Oct-17 03:16N 38°55' E 001°26'0 0.0
2017-Oct-17 02:59N 38°55' E 001°26'0 0.0
2017-Oct-17 02:30N 38°55' E 001°26'0 0.0
2017-Oct-17 01:58N 38°55' E 001°26'0 0.0
2017-Oct-17 01:29N 38°55' E 001°26'0 0.0
2017-Oct-17 00:58N 38°55' E 001°26'0 0.0
2017-Oct-17 00:30N 38°55' E 001°26'0 0.0
2017-Oct-17 00:00N 38°55' E 001°26'0 0.0
2017-Oct-16 23:29N 38°55' E 001°26'0 0.0
2017-Oct-16 23:00N 38°55' E 001°26'0 0.0
2017-Oct-16 22:30N 38°55' E 001°26'0 0.0
2017-Oct-16 21:59N 38°55' E 001°26'1 1.9
2017-Oct-16 21:29N 38°54' E 001°27'9 7.5
2017-Oct-16 20:19N 38°45' E 001°25'814.4
2017-Oct-16 19:46N 38°53' E 001°27'2 7.0
2017-Oct-16 19:29N 38°55' E 001°26'0 0.0
2017-Oct-16 18:59N 38°55' E 001°26'0 0.0
2017-Oct-16 18:29N 38°55' E 001°26'0 0.0
2017-Oct-16 17:59N 38°55' E 001°26'0 0.1
2017-Oct-16 17:29N 38°55' E 001°26'511.2
2017-Oct-16 17:00N 38°49' E 001°26'5 1.2
2017-Oct-16 12:26N 38°55' E 001°26'0 0.1
2017-Oct-16 11:55N 38°55' E 001°26'511.8
2017-Oct-16 11:29N 38°50' E 001°26'5 4.8
2017-Oct-16 10:26N 38°45' E 001°25'613.1
2017-Oct-16 09:57N 38°51' E 001°27'4 6.4
2017-Oct-16 09:21N 38°55' E 001°26'0 0.0
2017-Oct-16 08:59N 38°55' E 001°26'0 0.0
2017-Oct-16 08:29N 38°55' E 001°26'0 0.0
2017-Oct-16 07:55N 38°55' E 001°26'0 0.0
2017-Oct-16 07:30N 38°55' E 001°26'510.8
2017-Oct-16 06:59N 38°49' E 001°26'4 4.0
2017-Oct-16 06:00N 38°45' E 001°25'813.4
2017-Oct-16 05:25N 38°53' E 001°27'2 3.4
2017-Oct-16 04:54N 38°55' E 001°26'0 0.0
2017-Oct-16 04:27N 38°55' E 001°26'0 0.0
2017-Oct-16 03:59N 38°55' E 001°26'0 0.0
2017-Oct-16 03:29N 38°55' E 001°26'0 0.0
2017-Oct-16 02:57N 38°55' E 001°26'0 0.0
2017-Oct-16 02:27N 38°55' E 001°26'0 0.0
2017-Oct-16 01:59N 38°55' E 001°26'0 0.0
2017-Oct-16 01:29N 38°55' E 001°26'0 0.0
2017-Oct-16 00:59N 38°55' E 001°26'0 0.0
2017-Oct-16 00:29N 38°55' E 001°26'0 0.0
2017-Oct-16 00:00N 38°55' E 001°26'0 0.0
2017-Oct-15 23:29N 38°55' E 001°26'0 0.0
2017-Oct-15 22:59N 38°55' E 001°26'0 0.0
2017-Oct-15 22:30N 38°55' E 001°26'0 0.0
2017-Oct-15 21:56N 38°55' E 001°26'1 2.1
2017-Oct-15 21:29N 38°54' E 001°27'9 7.4
2017-Oct-15 20:19N 38°45' E 001°25'714.4
2017-Oct-15 19:51N 38°52' E 001°26'3 7.0
2017-Oct-15 19:27N 38°55' E 001°26'0 0.0
2017-Oct-15 18:59N 38°55' E 001°26'0 0.0
2017-Oct-15 18:30N 38°55' E 001°26'0 0.0
2017-Oct-15 17:59N 38°55' E 001°26'0 0.2
2017-Oct-15 17:28N 38°55' E 001°26'712.4
2017-Oct-15 16:56N 38°48' E 001°25'4 4.1
2017-Oct-15 16:01N 38°44' E 001°25'0 2.5
2017-Oct-15 15:59N 38°44' E 001°25'712.7
2017-Oct-15 15:28N 38°51' E 001°26'4 8.0
2017-Oct-15 14:59N 38°55' E 001°26'0 0.0
2017-Oct-15 14:00N 38°55' E 001°26'0 0.0
2017-Oct-15 13:29N 38°55' E 001°26'0 0.0
2017-Oct-15 13:00N 38°55' E 001°26'0 0.0
2017-Oct-15 12:29N 38°55' E 001°26'0 0.0
2017-Oct-15 11:59N 38°55' E 001°26'4 9.1
2017-Oct-15 11:30N 38°50' E 001°26'5 4.9
2017-Oct-15 10:27N 38°45' E 001°25'613.2
2017-Oct-15 10:00N 38°51' E 001°27'4 7.0
2017-Oct-15 09:30N 38°55' E 001°26'0 0.0
2017-Oct-15 08:58N 38°55' E 001°26'0 0.0
2017-Oct-15 08:30N 38°55' E 001°26'5 9.3
2017-Oct-15 08:00N 38°50' E 001°26'6 5.0
2017-Oct-15 06:52N 38°45' E 001°25'713.9
2017-Oct-15 06:24N 38°51' E 001°26'4 9.1
2017-Oct-15 06:00N 38°55' E 001°26'0 0.0
2017-Oct-15 05:29N 38°55' E 001°26'0 0.0
2017-Oct-15 04:59N 38°55' E 001°26'0 0.0
2017-Oct-15 04:30N 38°55' E 001°26'0 0.0
2017-Oct-15 03:56N 38°55' E 001°26'0 0.0
2017-Oct-15 03:29N 38°55' E 001°26'0 0.0
2017-Oct-15 02:59N 38°55' E 001°26'0 0.0
2017-Oct-15 02:28N 38°55' E 001°26'0 0.0
2017-Oct-15 01:58N 38°55' E 001°26'0 0.0
2017-Oct-15 01:27N 38°55' E 001°26'0 0.0
2017-Oct-15 00:57N 38°55' E 001°26'0 0.0
2017-Oct-15 00:29N 38°55' E 001°26'0 0.0
2017-Oct-14 23:59N 38°55' E 001°26'0 0.0
2017-Oct-14 23:28N 38°55' E 001°26'0 0.0
2017-Oct-14 22:58N 38°55' E 001°26'0 0.0
2017-Oct-14 22:29N 38°55' E 001°26'0 0.0
2017-Oct-14 21:49N 38°55' E 001°26'2 5.4
2017-Oct-14 21:30N 38°53' E 001°27'8 6.6
2017-Oct-14 20:18N 38°45' E 001°25'814.5
2017-Oct-14 19:45N 38°53' E 001°27'2 5.6
2017-Oct-14 19:28N 38°55' E 001°26'0 0.0
2017-Oct-14 18:58N 38°55' E 001°26'0 0.0
2017-Oct-14 18:30N 38°55' E 001°26'0 0.0
2017-Oct-14 18:00N 38°55' E 001°26'0 0.0
2017-Oct-14 17:30N 38°55' E 001°26'611.1
2017-Oct-14 17:00N 38°49' E 001°26'5 4.5
2017-Oct-14 15:58N 38°45' E 001°25'612.4
2017-Oct-14 15:30N 38°50' E 001°26'5 8.9
2017-Oct-14 15:00N 38°55' E 001°26'0 0.0
2017-Oct-14 14:30N 38°55' E 001°26'0 0.0
2017-Oct-14 14:00N 38°55' E 001°26'0 0.0
2017-Oct-14 13:27N 38°55' E 001°26'0 0.0
2017-Oct-14 12:59N 38°55' E 001°26'0 0.0
2017-Oct-14 12:29N 38°55' E 001°26'0 0.0
2017-Oct-14 12:00N 38°55' E 001°26'511.1
2017-Oct-14 11:30N 38°49' E 001°26'5 5.1
2017-Oct-14 10:32N 38°44' E 001°25'0 4.2
2017-Oct-14 10:28N 38°45' E 001°25'612.9
2017-Oct-14 10:00N 38°51' E 001°26'4 8.0
2017-Oct-14 09:30N 38°55' E 001°26'0 0.0
2017-Oct-14 08:59N 38°55' E 001°26'0 0.0
2017-Oct-14 08:27N 38°55' E 001°26'0 0.0
2017-Oct-14 08:00N 38°55' E 001°26'0 0.0
2017-Oct-14 07:29N 38°55' E 001°26'6 9.7
2017-Oct-14 06:54N 38°49' E 001°26'4 4.3
2017-Oct-14 05:56N 38°45' E 001°25'713.8
2017-Oct-14 05:25N 38°52' E 001°26'3 6.6
2017-Oct-14 04:59N 38°55' E 001°26'0 0.0
2017-Oct-14 04:30N 38°55' E 001°26'0 0.0
2017-Oct-14 04:00N 38°55' E 001°26'0 0.0
2017-Oct-14 03:29N 38°55' E 001°26'0 0.0
2017-Oct-14 03:00N 38°55' E 001°26'0 0.0
2017-Oct-14 02:28N 38°55' E 001°26'0 0.0
2017-Oct-14 01:57N 38°55' E 001°26'0 0.0
2017-Oct-14 01:30N 38°55' E 001°26'0 0.0
2017-Oct-14 00:57N 38°55' E 001°26'0 0.0
2017-Oct-14 00:29N 38°55' E 001°26'0 0.0
2017-Oct-14 00:00N 38°55' E 001°26'0 0.0
2017-Oct-13 23:29N 38°55' E 001°26'0 0.0
2017-Oct-13 23:00N 38°55' E 001°26'0 0.0
2017-Oct-13 22:30N 38°55' E 001°26'0 0.0
2017-Oct-13 22:00N 38°55' E 001°26'2 3.9
2017-Oct-13 21:30N 38°53' E 001°27'8 7.8
2017-Oct-13 20:25N 38°44' E 001°25'714.4
2017-Oct-13 19:55N 38°52' E 001°26'3 7.0
2017-Oct-13 19:29N 38°55' E 001°26'0 0.0
2017-Oct-13 18:59N 38°55' E 001°26'0 0.0
2017-Oct-13 18:28N 38°55' E 001°26'0 0.0
2017-Oct-13 18:00N 38°55' E 001°26'0 0.2
2017-Oct-13 17:30N 38°55' E 001°26'612.3
2017-Oct-13 16:58N 38°48' E 001°25'3 2.7
2017-Oct-13 15:53N 38°45' E 001°25'613.5
2017-Oct-13 15:24N 38°52' E 001°26'3 7.1
2017-Oct-13 14:59N 38°55' E 001°26'0 0.0
2017-Oct-13 14:29N 38°55' E 001°26'0 0.0
2017-Oct-13 13:59N 38°55' E 001°26'0 0.0
2017-Oct-13 13:28N 38°55' E 001°26'0 0.0
2017-Oct-13 13:00N 38°55' E 001°26'0 0.0
2017-Oct-13 12:30N 38°55' E 001°26'0 0.0
2017-Oct-13 11:59N 38°55' E 001°26'611.4
2017-Oct-13 11:29N 38°49' E 001°26'4 4.5
2017-Oct-13 10:30N 38°45' E 001°25'713.6
2017-Oct-13 10:00N 38°51' E 001°26'3 6.7
2017-Oct-13 09:30N 38°55' E 001°26'0 0.0
2017-Oct-13 08:42N 38°55' E 001°26'0 0.0
2017-Oct-13 08:29N 38°55' E 001°26'0 0.0
2017-Oct-13 07:57N 38°55' E 001°26'0 0.0
2017-Oct-13 07:29N 38°55' E 001°26'510.6
2017-Oct-13 07:00N 38°50' E 001°26'5 5.2
2017-Oct-13 06:00N 38°44' E 001°25'713.2
2017-Oct-13 05:28N 38°51' E 001°26'3 7.2
2017-Oct-13 05:00N 38°55' E 001°26'0 0.0
2017-Oct-13 04:29N 38°55' E 001°26'0 0.0
2017-Oct-13 04:00N 38°55' E 001°26'0 0.0
2017-Oct-13 03:30N 38°55' E 001°26'0 0.0
2017-Oct-13 02:59N 38°55' E 001°26'0 0.0
2017-Oct-13 02:29N 38°55' E 001°26'0 0.0
2017-Oct-13 01:59N 38°55' E 001°26'0 0.0
2017-Oct-13 01:28N 38°55' E 001°26'0 0.0
2017-Oct-13 00:58N 38°55' E 001°26'0 0.0
2017-Oct-13 00:29N 38°55' E 001°26'0 0.0
2017-Oct-13 00:00N 38°55' E 001°26'0 0.0
2017-Oct-12 23:30N 38°55' E 001°26'0 0.0
2017-Oct-12 22:59N 38°55' E 001°26'0 0.0
2017-Oct-12 22:29N 38°55' E 001°26'0 0.0
2017-Oct-12 21:59N 38°55' E 001°26'4 7.5
2017-Oct-12 21:23N 38°50' E 001°26'6 5.7
2017-Oct-12 20:22N 38°45' E 001°25'613.7
2017-Oct-12 19:57N 38°50' E 001°26'4 9.6
2017-Oct-12 19:29N 38°55' E 001°26'0 0.0
2017-Oct-12 19:00N 38°55' E 001°26'0 0.0
2017-Oct-12 18:28N 38°55' E 001°26'0 0.0
2017-Oct-12 18:00N 38°55' E 001°26'0 0.0
2017-Oct-12 17:30N 38°55' E 001°26'610.7
2017-Oct-12 16:59N 38°49' E 001°25'5 4.8
2017-Oct-12 16:00N 38°44' E 001°25'711.8
2017-Oct-12 15:25N 38°51' E 001°26'3 7.8
2017-Oct-12 14:59N 38°55' E 001°26'0 0.0
2017-Oct-12 14:28N 38°55' E 001°26'0 0.0
2017-Oct-12 13:59N 38°55' E 001°26'0 0.0
2017-Oct-12 13:29N 38°55' E 001°26'0 0.0
2017-Oct-12 13:00N 38°55' E 001°26'0 0.0
2017-Oct-12 12:30N 38°55' E 001°26'0 0.1
2017-Oct-12 11:54N 38°55' E 001°26'512.7
2017-Oct-12 11:30N 38°50' E 001°26'5 5.2
2017-Oct-12 10:30N 38°44' E 001°25'713.4
2017-Oct-12 09:58N 38°52' E 001°26'3 6.6
2017-Oct-12 09:29N 38°55' E 001°26'0 0.0
2017-Oct-12 09:00N 38°55' E 001°26'0 0.0
2017-Oct-12 08:28N 38°55' E 001°26'511.3
2017-Oct-12 07:59N 38°49' E 001°26'5 4.4
2017-Oct-12 06:56N 38°45' E 001°25'714.0
2017-Oct-12 06:25N 38°52' E 001°27'3 6.8
2017-Oct-12 06:00N 38°55' E 001°26'0 0.0
2017-Oct-12 05:30N 38°55' E 001°26'0 0.0
2017-Oct-12 04:58N 38°55' E 001°26'0 0.0
2017-Oct-12 04:29N 38°55' E 001°26'0 0.0
2017-Oct-12 04:00N 38°55' E 001°26'0 0.0
2017-Oct-12 03:29N 38°55' E 001°26'0 0.0
2017-Oct-12 03:00N 38°55' E 001°26'0 0.0
2017-Oct-12 02:29N 38°55' E 001°26'0 0.0
2017-Oct-12 02:00N 38°55' E 001°26'0 0.0
2017-Oct-12 01:30N 38°55' E 001°26'0 0.0
2017-Oct-12 00:59N 38°55' E 001°26'0 0.0
2017-Oct-12 00:29N 38°55' E 001°26'0 0.0
2017-Oct-11 23:59N 38°55' E 001°26'0 0.0
2017-Oct-11 23:28N 38°55' E 001°26'0 0.0
2017-Oct-11 23:01N 38°55' E 001°26'0 0.0
2017-Oct-11 22:28N 38°55' E 001°26'0 0.0
2017-Oct-11 22:00N 38°55' E 001°26'1 2.4
2017-Oct-11 21:30N 38°54' E 001°27'8 6.2
2017-Oct-11 20:16N 38°46' E 001°25'614.2
2017-Oct-11 19:53N 38°52' E 001°26'3 7.8
2017-Oct-11 19:28N 38°55' E 001°26'0 0.0
2017-Oct-11 18:59N 38°55' E 001°26'0 0.0
2017-Oct-11 18:28N 38°55' E 001°26'0 0.0
2017-Oct-11 17:59N 38°55' E 001°26'0 0.0
2017-Oct-11 17:30N 38°55' E 001°26'510.4
2017-Oct-11 16:59N 38°49' E 001°26'5 0.3
2017-Oct-11 00:00N 38°55' E 001°26'0 0.0
2017-Oct-10 23:30N 38°55' E 001°26'0 0.0
2017-Oct-10 22:59N 38°55' E 001°26'0 0.0
2017-Oct-10 21:55N 38°55' E 001°26'1 2.3
2017-Oct-10 21:30N 38°54' E 001°27'8 6.6
2017-Oct-10 20:17N 38°46' E 001°25'714.6
2017-Oct-10 19:48N 38°53' E 001°27'2 6.5
2017-Oct-10 19:29N 38°55' E 001°26'0 0.0
2017-Oct-10 18:59N 38°55' E 001°26'0 0.0
2017-Oct-10 18:29N 38°55' E 001°26'0 0.0
2017-Oct-10 18:00N 38°55' E 001°26'0 0.0
2017-Oct-10 17:30N 38°55' E 001°26'711.0
2017-Oct-10 16:54N 38°48' E 001°25'3 3.7
2017-Oct-10 15:58N 38°45' E 001°25'813.8
2017-Oct-10 15:25N 38°53' E 001°27'2 5.4
2017-Oct-10 15:00N 38°55' E 001°26'0 0.0
2017-Oct-10 13:59N 38°55' E 001°26'0 0.0
2017-Oct-10 13:30N 38°55' E 001°26'0 0.0
2017-Oct-10 13:00N 38°55' E 001°26'0 0.0
2017-Oct-10 12:29N 38°55' E 001°26'0 0.0
2017-Oct-10 11:59N 38°55' E 001°26'510.5
2017-Oct-10 11:30N 38°50' E 001°26'4 3.5
2017-Oct-10 10:21N 38°46' E 001°25'513.9
2017-Oct-10 09:59N 38°51' E 001°26'4 8.5
2017-Oct-10 09:30N 38°55' E 001°26'0 0.0
2017-Oct-10 09:00N 38°55' E 001°26'0 0.0
2017-Oct-10 08:30N 38°55' E 001°26'0 0.0
2017-Oct-10 07:59N 38°55' E 001°26'0 0.0
2017-Oct-10 07:28N 38°55' E 001°26'510.9
2017-Oct-10 06:59N 38°49' E 001°26'4 3.5
2017-Oct-10 05:55N 38°46' E 001°25'614.6
2017-Oct-10 05:29N 38°52' E 001°26'3 5.8
2017-Oct-10 05:00N 38°55' E 001°26'0 0.0
2017-Oct-10 04:30N 38°55' E 001°26'0 0.0
2017-Oct-10 03:59N 38°55' E 001°26'0 0.0
2017-Oct-10 03:29N 38°55' E 001°26'0 0.0
2017-Oct-10 02:58N 38°55' E 001°26'0 0.0
2017-Oct-10 02:28N 38°55' E 001°26'0 0.0
2017-Oct-10 02:00N 38°55' E 001°26'0 0.0
2017-Oct-10 01:29N 38°55' E 001°26'0 0.0
2017-Oct-10 00:59N 38°55' E 001°26'0 0.0
2017-Oct-10 00:29N 38°55' E 001°26'0 0.0
2017-Oct-09 23:59N 38°55' E 001°26'0 0.0
2017-Oct-09 23:30N 38°55' E 001°26'0 0.0
2017-Oct-09 22:59N 38°55' E 001°26'0 0.0
2017-Oct-09 22:29N 38°55' E 001°26'0 0.0
2017-Oct-09 22:00N 38°55' E 001°26'1 2.9
2017-Oct-09 21:29N 38°53' E 001°27'8 6.3
2017-Oct-09 20:17N 38°46' E 001°25'614.4
2017-Oct-09 19:52N 38°52' E 001°26'3 7.8
2017-Oct-09 19:29N 38°55' E 001°26'0 0.0
2017-Oct-09 19:00N 38°55' E 001°26'0 0.0
2017-Oct-09 18:29N 38°55' E 001°26'0 0.0
2017-Oct-09 18:00N 38°55' E 001°26'0 0.1
2017-Oct-09 17:27N 38°55' E 001°26'611.6
2017-Oct-09 16:59N 38°49' E 001°26'3 2.9
2017-Oct-09 15:51N 38°46' E 001°25'514.3
2017-Oct-09 15:28N 38°51' E 001°26'3 7.3
2017-Oct-09 15:00N 38°55' E 001°26'0 0.0
2017-Oct-09 14:30N 38°55' E 001°26'0 0.0
2017-Oct-09 14:00N 38°55' E 001°26'0 0.0
2017-Oct-09 13:31N 38°55' E 001°26'0 0.0
2017-Oct-09 13:00N 38°55' E 001°26'0 0.0
2017-Oct-09 12:30N 38°55' E 001°26'0 0.0
2017-Oct-09 12:00N 38°55' E 001°26'5 9.7
2017-Oct-09 11:26N 38°49' E 001°26'5 5.0
2017-Oct-09 10:28N 38°45' E 001°25'613.5
2017-Oct-09 10:00N 38°51' E 001°26'4 7.7
2017-Oct-09 09:30N 38°55' E 001°26'0 0.0
2017-Oct-09 08:59N 38°55' E 001°26'0 0.0
2017-Oct-09 08:28N 38°55' E 001°26'0 0.0
2017-Oct-09 07:59N 38°55' E 001°26'0 0.0
2017-Oct-09 07:30N 38°55' E 001°26'611.2
2017-Oct-09 07:00N 38°49' E 001°26'5 4.9
2017-Oct-09 06:01N 38°44' E 001°25'112.3
2017-Oct-09 05:55N 38°46' E 001°25'714.2
2017-Oct-09 05:25N 38°53' E 001°26'2 5.5
2017-Oct-09 05:00N 38°55' E 001°26'0 0.0
2017-Oct-09 04:28N 38°55' E 001°26'0 0.0
2017-Oct-09 03:58N 38°55' E 001°26'0 0.0
2017-Oct-09 03:30N 38°55' E 001°26'0 0.0
2017-Oct-09 03:00N 38°55' E 001°26'0 0.0
2017-Oct-09 02:28N 38°55' E 001°26'0 0.0
2017-Oct-09 02:00N 38°55' E 001°26'0 0.0
2017-Oct-09 01:30N 38°55' E 001°26'0 0.0
2017-Oct-09 00:59N 38°55' E 001°26'0 0.0
2017-Oct-09 00:29N 38°55' E 001°26'0 0.0
2017-Oct-08 23:59N 38°55' E 001°26'0 0.0
2017-Oct-08 23:30N 38°55' E 001°26'0 0.0
2017-Oct-08 22:59N 38°55' E 001°26'0 0.0
2017-Oct-08 22:30N 38°55' E 001°26'  

Dump ship's entire track history